sensor_id;sensor_type;location;lat;lon;timestamp;P1;durP1;ratioP1;P2;durP2;ratioP2
2850;SDS011;1433;49.976;8.342;2023-04-06T00:00:33;3.47;;;2.60;;
2850;SDS011;1433;49.976;8.342;2023-04-06T00:02:59;2.60;;;2.47;;
2850;SDS011;1433;49.976;8.342;2023-04-06T00:05:25;2.60;;;2.33;;
2850;SDS011;1433;49.976;8.342;2023-04-06T00:07:53;2.13;;;1.83;;
2850;SDS011;1433;49.976;8.342;2023-04-06T00:10:21;5.33;;;2.93;;
2850;SDS011;1433;49.976;8.342;2023-04-06T00:12:47;5.80;;;3.50;;
2850;SDS011;1433;49.976;8.342;2023-04-06T00:15:14;3.50;;;3.20;;
2850;SDS011;1433;49.976;8.342;2023-04-06T00:17:40;5.20;;;3.13;;
2850;SDS011;1433;49.976;8.342;2023-04-06T00:20:07;3.53;;;2.90;;
2850;SDS011;1433;49.976;8.342;2023-04-06T00:22:33;3.07;;;2.53;;
2850;SDS011;1433;49.976;8.342;2023-04-06T00:25:00;2.63;;;2.47;;
2850;SDS011;1433;49.976;8.342;2023-04-06T00:27:26;2.60;;;2.40;;
2850;SDS011;1433;49.976;8.342;2023-04-06T00:29:52;3.30;;;2.50;;
2850;SDS011;1433;49.976;8.342;2023-04-06T00:32:18;4.60;;;2.50;;
2850;SDS011;1433;49.976;8.342;2023-04-06T00:34:45;2.83;;;2.57;;
2850;SDS011;1433;49.976;8.342;2023-04-06T00:37:11;3.60;;;3.30;;
2850;SDS011;1433;49.976;8.342;2023-04-06T00:39:37;3.13;;;2.93;;
2850;SDS011;1433;49.976;8.342;2023-04-06T00:42:07;3.57;;;3.10;;
2850;SDS011;1433;49.976;8.342;2023-04-06T00:44:37;3.50;;;2.60;;
2850;SDS011;1433;49.976;8.342;2023-04-06T00:47:04;5.83;;;2.63;;
2850;SDS011;1433;49.976;8.342;2023-04-06T00:49:30;4.70;;;1.97;;
2850;SDS011;1433;49.976;8.342;2023-04-06T00:51:58;3.30;;;2.60;;
2850;SDS011;1433;49.976;8.342;2023-04-06T00:54:24;2.57;;;2.37;;
2850;SDS011;1433;49.976;8.342;2023-04-06T00:56:51;4.53;;;3.10;;
2850;SDS011;1433;49.976;8.342;2023-04-06T00:59:18;3.87;;;2.60;;
2850;SDS011;1433;49.976;8.342;2023-04-06T01:01:44;4.33;;;2.60;;
2850;SDS011;1433;49.976;8.342;2023-04-06T01:04:12;4.30;;;3.27;;
2850;SDS011;1433;49.976;8.342;2023-04-06T01:06:40;5.37;;;3.00;;
2850;SDS011;1433;49.976;8.342;2023-04-06T01:09:07;3.23;;;2.93;;
2850;SDS011;1433;49.976;8.342;2023-04-06T01:11:33;3.83;;;3.00;;
2850;SDS011;1433;49.976;8.342;2023-04-06T01:14:01;3.97;;;3.57;;
2850;SDS011;1433;49.976;8.342;2023-04-06T01:16:31;2.73;;;2.10;;
2850;SDS011;1433;49.976;8.342;2023-04-06T01:18:59;3.30;;;3.00;;
2850;SDS011;1433;49.976;8.342;2023-04-06T01:21:27;2.40;;;2.20;;
2850;SDS011;1433;49.976;8.342;2023-04-06T01:24:05;3.60;;;3.13;;
2850;SDS011;1433;49.976;8.342;2023-04-06T01:26:35;6.20;;;3.50;;
2850;SDS011;1433;49.976;8.342;2023-04-06T01:29:04;2.50;;;2.30;;
2850;SDS011;1433;49.976;8.342;2023-04-06T01:31:31;2.80;;;2.60;;
2850;SDS011;1433;49.976;8.342;2023-04-06T01:33:57;3.57;;;2.73;;
2850;SDS011;1433;49.976;8.342;2023-04-06T01:36:24;3.57;;;2.90;;
2850;SDS011;1433;49.976;8.342;2023-04-06T01:38:52;7.27;;;2.77;;
2850;SDS011;1433;49.976;8.342;2023-04-06T01:41:20;3.43;;;3.07;;
2850;SDS011;1433;49.976;8.342;2023-04-06T01:43:48;6.03;;;4.10;;
2850;SDS011;1433;49.976;8.342;2023-04-06T01:46:16;2.83;;;2.47;;
2850;SDS011;1433;49.976;8.342;2023-04-06T01:48:42;3.13;;;2.83;;
2850;SDS011;1433;49.976;8.342;2023-04-06T01:51:10;4.00;;;3.60;;
2850;SDS011;1433;49.976;8.342;2023-04-06T01:53:38;3.80;;;2.40;;
2850;SDS011;1433;49.976;8.342;2023-04-06T01:56:05;4.10;;;2.47;;
2850;SDS011;1433;49.976;8.342;2023-04-06T01:58:34;2.70;;;2.40;;
2850;SDS011;1433;49.976;8.342;2023-04-06T02:01:00;3.23;;;2.57;;
2850;SDS011;1433;49.976;8.342;2023-04-06T02:03:28;2.83;;;2.43;;
2850;SDS011;1433;49.976;8.342;2023-04-06T02:05:56;2.07;;;1.93;;
2850;SDS011;1433;49.976;8.342;2023-04-06T02:08:24;2.53;;;1.93;;
2850;SDS011;1433;49.976;8.342;2023-04-06T02:10:51;2.80;;;2.23;;
2850;SDS011;1433;49.976;8.342;2023-04-06T02:13:22;4.23;;;3.30;;
2850;SDS011;1433;49.976;8.342;2023-04-06T02:15:50;3.10;;;2.80;;
2850;SDS011;1433;49.976;8.342;2023-04-06T02:18:17;2.90;;;2.20;;
2850;SDS011;1433;49.976;8.342;2023-04-06T02:20:44;3.43;;;2.60;;
2850;SDS011;1433;49.976;8.342;2023-04-06T02:23:11;3.40;;;2.90;;
2850;SDS011;1433;49.976;8.342;2023-04-06T02:25:37;4.47;;;2.70;;
2850;SDS011;1433;49.976;8.342;2023-04-06T02:28:03;2.80;;;2.30;;
2850;SDS011;1433;49.976;8.342;2023-04-06T02:30:30;2.90;;;1.90;;
2850;SDS011;1433;49.976;8.342;2023-04-06T02:32:59;2.40;;;2.20;;
2850;SDS011;1433;49.976;8.342;2023-04-06T02:35:28;4.03;;;2.87;;
2850;SDS011;1433;49.976;8.342;2023-04-06T02:37:55;3.53;;;2.20;;
2850;SDS011;1433;49.976;8.342;2023-04-06T02:40:21;5.77;;;2.83;;
2850;SDS011;1433;49.976;8.342;2023-04-06T02:42:47;2.63;;;2.33;;
2850;SDS011;1433;49.976;8.342;2023-04-06T02:45:14;5.03;;;3.33;;
2850;SDS011;1433;49.976;8.342;2023-04-06T02:47:42;3.20;;;2.43;;
2850;SDS011;1433;49.976;8.342;2023-04-06T02:50:10;4.47;;;2.93;;
2850;SDS011;1433;49.976;8.342;2023-04-06T02:52:38;3.33;;;3.10;;
2850;SDS011;1433;49.976;8.342;2023-04-06T02:55:05;3.73;;;2.83;;
2850;SDS011;1433;49.976;8.342;2023-04-06T02:57:33;3.00;;;1.83;;
2850;SDS011;1433;49.976;8.342;2023-04-06T03:00:00;4.50;;;2.70;;
2850;SDS011;1433;49.976;8.342;2023-04-06T03:02:28;2.60;;;2.40;;
2850;SDS011;1433;49.976;8.342;2023-04-06T03:04:57;5.00;;;2.13;;
2850;SDS011;1433;49.976;8.342;2023-04-06T03:07:25;3.70;;;2.50;;
2850;SDS011;1433;49.976;8.342;2023-04-06T03:09:51;3.77;;;2.47;;
2850;SDS011;1433;49.976;8.342;2023-04-06T03:12:17;2.30;;;2.10;;
2850;SDS011;1433;49.976;8.342;2023-04-06T03:14:45;3.23;;;2.90;;
2850;SDS011;1433;49.976;8.342;2023-04-06T03:17:11;3.40;;;2.80;;
2850;SDS011;1433;49.976;8.342;2023-04-06T03:19:38;2.73;;;2.53;;
2850;SDS011;1433;49.976;8.342;2023-04-06T03:22:06;2.93;;;2.40;;
2850;SDS011;1433;49.976;8.342;2023-04-06T03:24:32;2.83;;;2.63;;
2850;SDS011;1433;49.976;8.342;2023-04-06T03:26:58;2.97;;;2.50;;
2850;SDS011;1433;49.976;8.342;2023-04-06T03:29:24;3.53;;;2.33;;
2850;SDS011;1433;49.976;8.342;2023-04-06T03:31:51;4.13;;;2.27;;
2850;SDS011;1433;49.976;8.342;2023-04-06T03:34:25;2.73;;;2.53;;
2850;SDS011;1433;49.976;8.342;2023-04-06T03:36:51;5.50;;;2.93;;
2850;SDS011;1433;49.976;8.342;2023-04-06T03:39:17;3.60;;;2.87;;
2850;SDS011;1433;49.976;8.342;2023-04-06T03:41:44;4.90;;;3.50;;
2850;SDS011;1433;49.976;8.342;2023-04-06T03:44:29;1.77;;;1.67;;
2850;SDS011;1433;49.976;8.342;2023-04-06T03:46:55;4.90;;;2.53;;
2850;SDS011;1433;49.976;8.342;2023-04-06T03:49:22;2.47;;;2.27;;
2850;SDS011;1433;49.976;8.342;2023-04-06T03:51:50;3.53;;;2.80;;
2850;SDS011;1433;49.976;8.342;2023-04-06T03:54:16;3.77;;;2.70;;
2850;SDS011;1433;49.976;8.342;2023-04-06T03:56:42;7.50;;;3.20;;
2850;SDS011;1433;49.976;8.342;2023-04-06T03:59:08;1.80;;;1.70;;
2850;SDS011;1433;49.976;8.342;2023-04-06T04:01:35;3.10;;;2.70;;
2850;SDS011;1433;49.976;8.342;2023-04-06T04:04:02;2.07;;;1.87;;
2850;SDS011;1433;49.976;8.342;2023-04-06T04:06:30;3.20;;;2.90;;
2850;SDS011;1433;49.976;8.342;2023-04-06T04:08:57;4.60;;;3.40;;
2850;SDS011;1433;49.976;8.342;2023-04-06T04:11:23;3.17;;;2.90;;
2850;SDS011;1433;49.976;8.342;2023-04-06T04:13:51;4.80;;;3.43;;
2850;SDS011;1433;49.976;8.342;2023-04-06T04:16:17;6.03;;;3.17;;
2850;SDS011;1433;49.976;8.342;2023-04-06T04:18:43;4.10;;;2.83;;
2850;SDS011;1433;49.976;8.342;2023-04-06T04:21:11;3.17;;;2.33;;
2850;SDS011;1433;49.976;8.342;2023-04-06T04:23:53;2.93;;;2.63;;
2850;SDS011;1433;49.976;8.342;2023-04-06T04:26:19;2.63;;;2.43;;
2850;SDS011;1433;49.976;8.342;2023-04-06T04:28:46;2.73;;;2.20;;
2850;SDS011;1433;49.976;8.342;2023-04-06T04:31:14;4.33;;;2.97;;
2850;SDS011;1433;49.976;8.342;2023-04-06T04:33:40;5.07;;;2.70;;
2850;SDS011;1433;49.976;8.342;2023-04-06T04:36:08;5.00;;;2.93;;
2850;SDS011;1433;49.976;8.342;2023-04-06T04:38:37;4.17;;;2.53;;
2850;SDS011;1433;49.976;8.342;2023-04-06T04:41:04;2.47;;;2.23;;
2850;SDS011;1433;49.976;8.342;2023-04-06T04:43:30;4.27;;;2.50;;
2850;SDS011;1433;49.976;8.342;2023-04-06T04:45:58;4.70;;;2.67;;
2850;SDS011;1433;49.976;8.342;2023-04-06T04:48:26;3.30;;;2.87;;
2850;SDS011;1433;49.976;8.342;2023-04-06T04:50:55;3.10;;;2.00;;
2850;SDS011;1433;49.976;8.342;2023-04-06T04:53:22;3.60;;;2.80;;
2850;SDS011;1433;49.976;8.342;2023-04-06T04:55:49;2.97;;;2.70;;
2850;SDS011;1433;49.976;8.342;2023-04-06T04:58:18;3.37;;;2.70;;
2850;SDS011;1433;49.976;8.342;2023-04-06T05:00:50;2.07;;;1.87;;
2850;SDS011;1433;49.976;8.342;2023-04-06T05:03:21;2.60;;;2.03;;
2850;SDS011;1433;49.976;8.342;2023-04-06T05:05:50;3.80;;;3.50;;
2850;SDS011;1433;49.976;8.342;2023-04-06T05:08:17;4.30;;;3.80;;
2850;SDS011;1433;49.976;8.342;2023-04-06T05:10:45;3.40;;;2.20;;
2850;SDS011;1433;49.976;8.342;2023-04-06T05:13:14;3.73;;;3.50;;
2850;SDS011;1433;49.976;8.342;2023-04-06T05:15:40;2.50;;;2.20;;
2850;SDS011;1433;49.976;8.342;2023-04-06T05:18:09;3.80;;;2.70;;
2850;SDS011;1433;49.976;8.342;2023-04-06T05:20:35;3.03;;;2.80;;
2850;SDS011;1433;49.976;8.342;2023-04-06T05:23:02;3.50;;;2.87;;
2850;SDS011;1433;49.976;8.342;2023-04-06T05:25:29;2.53;;;2.33;;
2850;SDS011;1433;49.976;8.342;2023-04-06T05:27:58;3.37;;;2.60;;
2850;SDS011;1433;49.976;8.342;2023-04-06T05:30:26;3.23;;;2.93;;
2850;SDS011;1433;49.976;8.342;2023-04-06T05:32:52;2.33;;;2.13;;
2850;SDS011;1433;49.976;8.342;2023-04-06T05:35:21;2.70;;;2.50;;
2850;SDS011;1433;49.976;8.342;2023-04-06T05:37:49;6.00;;;4.03;;
2850;SDS011;1433;49.976;8.342;2023-04-06T05:40:16;3.57;;;3.20;;
2850;SDS011;1433;49.976;8.342;2023-04-06T05:42:42;4.33;;;3.00;;
2850;SDS011;1433;49.976;8.342;2023-04-06T05:45:10;2.43;;;2.23;;
2850;SDS011;1433;49.976;8.342;2023-04-06T05:47:39;2.67;;;2.43;;
2850;SDS011;1433;49.976;8.342;2023-04-06T05:50:07;3.57;;;3.20;;
2850;SDS011;1433;49.976;8.342;2023-04-06T05:52:35;3.90;;;3.00;;
2850;SDS011;1433;49.976;8.342;2023-04-06T05:55:02;3.53;;;3.20;;
2850;SDS011;1433;49.976;8.342;2023-04-06T05:57:30;3.90;;;2.97;;
2850;SDS011;1433;49.976;8.342;2023-04-06T05:59:56;6.20;;;3.60;;
2850;SDS011;1433;49.976;8.342;2023-04-06T06:02:24;3.40;;;3.10;;
2850;SDS011;1433;49.976;8.342;2023-04-06T06:04:51;3.43;;;3.20;;
2850;SDS011;1433;49.976;8.342;2023-04-06T06:07:17;4.10;;;3.13;;
2850;SDS011;1433;49.976;8.342;2023-04-06T06:09:46;4.57;;;3.37;;
2850;SDS011;1433;49.976;8.342;2023-04-06T06:12:17;6.80;;;3.87;;
2850;SDS011;1433;49.976;8.342;2023-04-06T06:14:43;10.00;;;3.20;;
2850;SDS011;1433;49.976;8.342;2023-04-06T06:17:10;3.80;;;3.50;;
2850;SDS011;1433;49.976;8.342;2023-04-06T06:19:36;5.33;;;4.40;;
2850;SDS011;1433;49.976;8.342;2023-04-06T06:22:04;6.43;;;3.43;;
2850;SDS011;1433;49.976;8.342;2023-04-06T06:24:33;5.10;;;3.40;;
2850;SDS011;1433;49.976;8.342;2023-04-06T06:26:59;5.23;;;3.57;;
2850;SDS011;1433;49.976;8.342;2023-04-06T06:29:27;5.30;;;4.10;;
2850;SDS011;1433;49.976;8.342;2023-04-06T06:31:54;4.13;;;3.73;;
2850;SDS011;1433;49.976;8.342;2023-04-06T06:34:20;3.63;;;3.43;;
2850;SDS011;1433;49.976;8.342;2023-04-06T06:36:48;5.57;;;3.80;;
2850;SDS011;1433;49.976;8.342;2023-04-06T06:39:17;4.53;;;3.00;;
2850;SDS011;1433;49.976;8.342;2023-04-06T06:41:47;5.80;;;3.27;;
2850;SDS011;1433;49.976;8.342;2023-04-06T06:44:14;5.47;;;3.83;;
2850;SDS011;1433;49.976;8.342;2023-04-06T06:46:42;4.60;;;3.90;;
2850;SDS011;1433;49.976;8.342;2023-04-06T06:49:08;5.20;;;4.40;;
2850;SDS011;1433;49.976;8.342;2023-04-06T06:51:37;5.70;;;4.13;;
2850;SDS011;1433;49.976;8.342;2023-04-06T06:54:04;4.50;;;4.10;;
2850;SDS011;1433;49.976;8.342;2023-04-06T06:56:30;5.23;;;4.73;;
2850;SDS011;1433;49.976;8.342;2023-04-06T06:58:57;4.20;;;3.80;;
2850;SDS011;1433;49.976;8.342;2023-04-06T07:01:24;7.53;;;4.57;;
2850;SDS011;1433;49.976;8.342;2023-04-06T07:03:50;8.67;;;4.80;;
2850;SDS011;1433;49.976;8.342;2023-04-06T07:06:16;8.50;;;4.57;;
2850;SDS011;1433;49.976;8.342;2023-04-06T07:08:42;7.70;;;4.83;;
2850;SDS011;1433;49.976;8.342;2023-04-06T07:11:09;6.80;;;4.50;;
2850;SDS011;1433;49.976;8.342;2023-04-06T07:13:35;5.37;;;4.40;;
2850;SDS011;1433;49.976;8.342;2023-04-06T07:16:01;7.47;;;5.17;;
2850;SDS011;1433;49.976;8.342;2023-04-06T07:18:28;4.53;;;3.93;;
2850;SDS011;1433;49.976;8.342;2023-04-06T07:20:55;4.70;;;4.20;;
2850;SDS011;1433;49.976;8.342;2023-04-06T07:23:21;4.70;;;4.23;;
2850;SDS011;1433;49.976;8.342;2023-04-06T07:25:47;5.00;;;4.07;;
2850;SDS011;1433;49.976;8.342;2023-04-06T07:28:15;4.77;;;4.37;;
2850;SDS011;1433;49.976;8.342;2023-04-06T07:30:42;4.33;;;3.93;;
2850;SDS011;1433;49.976;8.342;2023-04-06T07:33:08;5.50;;;5.00;;
2850;SDS011;1433;49.976;8.342;2023-04-06T07:35:35;5.80;;;4.40;;
2850;SDS011;1433;49.976;8.342;2023-04-06T07:38:02;5.73;;;4.30;;
2850;SDS011;1433;49.976;8.342;2023-04-06T07:40:30;7.73;;;4.73;;
2850;SDS011;1433;49.976;8.342;2023-04-06T07:42:57;5.20;;;4.73;;
2850;SDS011;1433;49.976;8.342;2023-04-06T07:45:25;5.10;;;4.60;;
2850;SDS011;1433;49.976;8.342;2023-04-06T07:47:52;6.27;;;4.27;;
2850;SDS011;1433;49.976;8.342;2023-04-06T07:50:18;5.20;;;4.50;;
2850;SDS011;1433;49.976;8.342;2023-04-06T07:52:45;4.57;;;4.13;;
2850;SDS011;1433;49.976;8.342;2023-04-06T07:55:11;5.33;;;4.07;;
2850;SDS011;1433;49.976;8.342;2023-04-06T07:57:37;8.60;;;4.60;;
2850;SDS011;1433;49.976;8.342;2023-04-06T08:00:04;4.33;;;3.90;;
2850;SDS011;1433;49.976;8.342;2023-04-06T08:02:33;4.73;;;3.63;;
2850;SDS011;1433;49.976;8.342;2023-04-06T08:05:00;3.67;;;3.37;;
2850;SDS011;1433;49.976;8.342;2023-04-06T08:07:26;4.70;;;4.17;;
2850;SDS011;1433;49.976;8.342;2023-04-06T08:09:52;6.17;;;4.20;;
2850;SDS011;1433;49.976;8.342;2023-04-06T08:12:20;4.73;;;4.13;;
2850;SDS011;1433;49.976;8.342;2023-04-06T08:14:47;3.50;;;3.17;;
2850;SDS011;1433;49.976;8.342;2023-04-06T08:17:13;5.90;;;4.67;;
2850;SDS011;1433;49.976;8.342;2023-04-06T08:19:41;4.67;;;4.27;;
2850;SDS011;1433;49.976;8.342;2023-04-06T08:22:10;7.43;;;4.70;;
2850;SDS011;1433;49.976;8.342;2023-04-06T08:24:36;9.53;;;4.53;;
2850;SDS011;1433;49.976;8.342;2023-04-06T08:30:16;4.30;;;3.90;;
2850;SDS011;1433;49.976;8.342;2023-04-06T08:32:45;7.37;;;4.60;;
2850;SDS011;1433;49.976;8.342;2023-04-06T08:35:11;6.63;;;4.77;;
2850;SDS011;1433;49.976;8.342;2023-04-06T08:37:37;7.90;;;4.67;;
2850;SDS011;1433;49.976;8.342;2023-04-06T08:40:04;7.80;;;5.77;;
2850;SDS011;1433;49.976;8.342;2023-04-06T08:42:34;4.17;;;3.70;;
2850;SDS011;1433;49.976;8.342;2023-04-06T08:45:04;5.37;;;4.80;;
2850;SDS011;1433;49.976;8.342;2023-04-06T08:47:31;6.37;;;4.97;;
2850;SDS011;1433;49.976;8.342;2023-04-06T08:49:57;5.80;;;4.80;;
2850;SDS011;1433;49.976;8.342;2023-04-06T08:52:24;9.67;;;4.77;;
2850;SDS011;1433;49.976;8.342;2023-04-06T08:54:52;5.33;;;3.93;;
2850;SDS011;1433;49.976;8.342;2023-04-06T08:57:18;4.93;;;4.50;;
2850;SDS011;1433;49.976;8.342;2023-04-06T08:59:45;6.20;;;5.07;;
2850;SDS011;1433;49.976;8.342;2023-04-06T09:02:14;4.53;;;3.90;;
2850;SDS011;1433;49.976;8.342;2023-04-06T09:04:42;6.03;;;4.57;;
2850;SDS011;1433;49.976;8.342;2023-04-06T09:07:10;9.53;;;6.00;;
2850;SDS011;1433;49.976;8.342;2023-04-06T09:09:36;8.13;;;4.63;;
2850;SDS011;1433;49.976;8.342;2023-04-06T09:12:03;5.00;;;4.60;;
2850;SDS011;1433;49.976;8.342;2023-04-06T09:14:37;6.63;;;5.00;;
2850;SDS011;1433;49.976;8.342;2023-04-06T09:17:05;7.70;;;6.80;;
2850;SDS011;1433;49.976;8.342;2023-04-06T09:19:31;5.93;;;4.93;;
2850;SDS011;1433;49.976;8.342;2023-04-06T09:22:04;5.73;;;4.67;;
2850;SDS011;1433;49.976;8.342;2023-04-06T09:24:43;5.43;;;4.97;;
2850;SDS011;1433;49.976;8.342;2023-04-06T09:27:11;5.63;;;5.13;;
2850;SDS011;1433;49.976;8.342;2023-04-06T09:29:37;7.07;;;6.10;;
2850;SDS011;1433;49.976;8.342;2023-04-06T09:32:04;9.13;;;5.67;;
2850;SDS011;1433;49.976;8.342;2023-04-06T09:34:31;6.80;;;5.50;;
2850;SDS011;1433;49.976;8.342;2023-04-06T09:36:58;12.47;;;6.23;;
2850;SDS011;1433;49.976;8.342;2023-04-06T09:39:25;8.73;;;5.40;;
2850;SDS011;1433;49.976;8.342;2023-04-06T09:41:52;6.03;;;5.33;;
2850;SDS011;1433;49.976;8.342;2023-04-06T09:44:19;6.77;;;4.90;;
2850;SDS011;1433;49.976;8.342;2023-04-06T09:46:46;5.40;;;4.90;;
2850;SDS011;1433;49.976;8.342;2023-04-06T09:49:13;7.10;;;5.40;;
2850;SDS011;1433;49.976;8.342;2023-04-06T09:51:41;8.30;;;6.30;;
2850;SDS011;1433;49.976;8.342;2023-04-06T09:54:16;7.63;;;5.70;;
2850;SDS011;1433;49.976;8.342;2023-04-06T09:56:51;6.50;;;5.90;;
2850;SDS011;1433;49.976;8.342;2023-04-06T10:02:08;5.80;;;4.90;;
2850;SDS011;1433;49.976;8.342;2023-04-06T10:07:21;7.03;;;5.20;;
2850;SDS011;1433;49.976;8.342;2023-04-06T10:09:48;6.30;;;5.70;;
2850;SDS011;1433;49.976;8.342;2023-04-06T10:12:15;9.00;;;5.60;;
2850;SDS011;1433;49.976;8.342;2023-04-06T10:14:42;5.43;;;4.90;;
2850;SDS011;1433;49.976;8.342;2023-04-06T10:17:09;6.87;;;5.00;;
2850;SDS011;1433;49.976;8.342;2023-04-06T10:19:47;8.60;;;6.50;;
2850;SDS011;1433;49.976;8.342;2023-04-06T10:22:36;12.77;;;6.03;;
2850;SDS011;1433;49.976;8.342;2023-04-06T10:25:05;5.73;;;5.10;;
2850;SDS011;1433;49.976;8.342;2023-04-06T10:27:31;8.30;;;4.63;;
2850;SDS011;1433;49.976;8.342;2023-04-06T10:30:02;7.13;;;5.10;;
2850;SDS011;1433;49.976;8.342;2023-04-06T10:32:34;6.03;;;5.10;;
2850;SDS011;1433;49.976;8.342;2023-04-06T10:35:09;6.23;;;4.57;;
2850;SDS011;1433;49.976;8.342;2023-04-06T10:37:50;7.13;;;5.00;;
2850;SDS011;1433;49.976;8.342;2023-04-06T10:40:22;7.40;;;6.07;;
2850;SDS011;1433;49.976;8.342;2023-04-06T10:42:51;7.37;;;5.50;;
2850;SDS011;1433;49.976;8.342;2023-04-06T10:45:23;8.27;;;5.43;;
2850;SDS011;1433;49.976;8.342;2023-04-06T10:47:53;7.40;;;5.57;;
2850;SDS011;1433;49.976;8.342;2023-04-06T10:50:20;6.67;;;4.80;;
2850;SDS011;1433;49.976;8.342;2023-04-06T10:52:57;8.17;;;5.60;;
2850;SDS011;1433;49.976;8.342;2023-04-06T10:55:28;8.70;;;6.10;;
2850;SDS011;1433;49.976;8.342;2023-04-06T10:57:56;7.67;;;4.57;;
2850;SDS011;1433;49.976;8.342;2023-04-06T11:00:22;7.47;;;6.00;;
2850;SDS011;1433;49.976;8.342;2023-04-06T11:02:49;8.97;;;6.40;;
2850;SDS011;1433;49.976;8.342;2023-04-06T11:05:15;9.77;;;5.07;;
2850;SDS011;1433;49.976;8.342;2023-04-06T11:07:41;10.83;;;6.60;;
2850;SDS011;1433;49.976;8.342;2023-04-06T11:10:08;6.93;;;5.57;;
2850;SDS011;1433;49.976;8.342;2023-04-06T11:12:34;8.07;;;5.27;;
2850;SDS011;1433;49.976;8.342;2023-04-06T11:15:02;5.27;;;4.37;;
2850;SDS011;1433;49.976;8.342;2023-04-06T11:17:35;5.43;;;3.93;;
2850;SDS011;1433;49.976;8.342;2023-04-06T11:20:03;6.93;;;4.80;;
2850;SDS011;1433;49.976;8.342;2023-04-06T11:22:31;8.13;;;5.37;;
2850;SDS011;1433;49.976;8.342;2023-04-06T11:25:04;7.30;;;4.90;;
2850;SDS011;1433;49.976;8.342;2023-04-06T11:27:33;5.43;;;4.70;;
2850;SDS011;1433;49.976;8.342;2023-04-06T11:30:00;5.73;;;5.10;;
2850;SDS011;1433;49.976;8.342;2023-04-06T11:32:27;11.73;;;5.30;;
2850;SDS011;1433;49.976;8.342;2023-04-06T11:34:53;5.20;;;4.70;;
2850;SDS011;1433;49.976;8.342;2023-04-06T11:37:20;7.77;;;4.70;;
2850;SDS011;1433;49.976;8.342;2023-04-06T11:39:50;7.23;;;5.40;;
2850;SDS011;1433;49.976;8.342;2023-04-06T11:42:22;9.30;;;5.00;;
2850;SDS011;1433;49.976;8.342;2023-04-06T11:44:50;8.70;;;5.60;;
2850;SDS011;1433;49.976;8.342;2023-04-06T11:47:18;9.27;;;5.40;;
2850;SDS011;1433;49.976;8.342;2023-04-06T11:49:46;9.63;;;5.33;;
2850;SDS011;1433;49.976;8.342;2023-04-06T11:52:17;8.90;;;4.97;;
2850;SDS011;1433;49.976;8.342;2023-04-06T11:54:47;6.90;;;4.83;;
2850;SDS011;1433;49.976;8.342;2023-04-06T11:57:14;6.80;;;5.00;;
2850;SDS011;1433;49.976;8.342;2023-04-06T11:59:40;7.87;;;5.10;;
2850;SDS011;1433;49.976;8.342;2023-04-06T12:02:07;7.50;;;5.53;;
2850;SDS011;1433;49.976;8.342;2023-04-06T12:04:33;7.83;;;5.90;;
2850;SDS011;1433;49.976;8.342;2023-04-06T12:07:00;5.90;;;4.93;;
2850;SDS011;1433;49.976;8.342;2023-04-06T12:09:26;8.67;;;5.30;;
2850;SDS011;1433;49.976;8.342;2023-04-06T12:11:53;7.40;;;6.47;;
2850;SDS011;1433;49.976;8.342;2023-04-06T12:14:19;6.53;;;5.17;;
2850;SDS011;1433;49.976;8.342;2023-04-06T12:16:46;8.00;;;5.33;;
2850;SDS011;1433;49.976;8.342;2023-04-06T12:19:13;8.20;;;5.33;;
2850;SDS011;1433;49.976;8.342;2023-04-06T12:21:39;8.70;;;5.23;;
2850;SDS011;1433;49.976;8.342;2023-04-06T12:24:06;8.80;;;4.73;;
2850;SDS011;1433;49.976;8.342;2023-04-06T12:26:32;8.97;;;5.43;;
2850;SDS011;1433;49.976;8.342;2023-04-06T12:28:59;6.53;;;4.80;;
2850;SDS011;1433;49.976;8.342;2023-04-06T12:31:36;8.77;;;5.00;;
2850;SDS011;1433;49.976;8.342;2023-04-06T12:34:08;6.20;;;4.80;;
2850;SDS011;1433;49.976;8.342;2023-04-06T12:36:36;8.17;;;3.87;;
2850;SDS011;1433;49.976;8.342;2023-04-06T12:39:02;6.50;;;4.60;;
2850;SDS011;1433;49.976;8.342;2023-04-06T12:41:29;6.07;;;5.20;;
2850;SDS011;1433;49.976;8.342;2023-04-06T12:43:55;6.23;;;4.27;;
2850;SDS011;1433;49.976;8.342;2023-04-06T12:46:23;9.53;;;6.10;;
2850;SDS011;1433;49.976;8.342;2023-04-06T12:48:49;8.20;;;4.50;;
2850;SDS011;1433;49.976;8.342;2023-04-06T12:51:19;4.97;;;3.70;;
2850;SDS011;1433;49.976;8.342;2023-04-06T12:53:45;7.33;;;4.20;;
2850;SDS011;1433;49.976;8.342;2023-04-06T12:56:15;4.53;;;4.03;;
2850;SDS011;1433;49.976;8.342;2023-04-06T12:58:43;8.70;;;4.27;;
2850;SDS011;1433;49.976;8.342;2023-04-06T13:01:11;4.97;;;3.67;;
2850;SDS011;1433;49.976;8.342;2023-04-06T13:03:40;4.87;;;3.70;;
2850;SDS011;1433;49.976;8.342;2023-04-06T13:06:06;6.17;;;3.90;;
2850;SDS011;1433;49.976;8.342;2023-04-06T13:08:39;6.03;;;4.00;;
2850;SDS011;1433;49.976;8.342;2023-04-06T13:11:06;4.60;;;3.60;;
2850;SDS011;1433;49.976;8.342;2023-04-06T13:13:35;5.40;;;3.73;;
2850;SDS011;1433;49.976;8.342;2023-04-06T13:16:06;4.17;;;3.40;;
2850;SDS011;1433;49.976;8.342;2023-04-06T13:18:33;5.97;;;4.20;;
2850;SDS011;1433;49.976;8.342;2023-04-06T13:21:02;6.07;;;4.17;;
2850;SDS011;1433;49.976;8.342;2023-04-06T13:23:30;5.10;;;4.60;;
2850;SDS011;1433;49.976;8.342;2023-04-06T13:25:56;3.50;;;2.77;;
2850;SDS011;1433;49.976;8.342;2023-04-06T13:28:24;4.93;;;3.83;;
2850;SDS011;1433;49.976;8.342;2023-04-06T13:30:50;6.40;;;4.00;;
2850;SDS011;1433;49.976;8.342;2023-04-06T13:33:16;4.37;;;3.97;;
2850;SDS011;1433;49.976;8.342;2023-04-06T13:35:45;4.93;;;4.10;;
2850;SDS011;1433;49.976;8.342;2023-04-06T13:38:12;4.60;;;4.07;;
2850;SDS011;1433;49.976;8.342;2023-04-06T13:40:39;7.43;;;3.97;;
2850;SDS011;1433;49.976;8.342;2023-04-06T13:43:06;4.80;;;3.63;;
2850;SDS011;1433;49.976;8.342;2023-04-06T13:45:32;5.00;;;3.50;;
2850;SDS011;1433;49.976;8.342;2023-04-06T13:47:58;6.60;;;4.60;;
2850;SDS011;1433;49.976;8.342;2023-04-06T13:50:25;5.23;;;4.00;;
2850;SDS011;1433;49.976;8.342;2023-04-06T13:52:54;4.57;;;3.53;;
2850;SDS011;1433;49.976;8.342;2023-04-06T13:55:21;5.30;;;3.87;;
2850;SDS011;1433;49.976;8.342;2023-04-06T13:57:50;5.53;;;3.20;;
2850;SDS011;1433;49.976;8.342;2023-04-06T14:00:37;5.10;;;4.43;;
2850;SDS011;1433;49.976;8.342;2023-04-06T14:03:05;5.10;;;4.37;;
2850;SDS011;1433;49.976;8.342;2023-04-06T14:05:31;5.17;;;3.50;;
2850;SDS011;1433;49.976;8.342;2023-04-06T14:08:01;4.80;;;3.83;;
2850;SDS011;1433;49.976;8.342;2023-04-06T14:10:29;4.43;;;4.00;;
2850;SDS011;1433;49.976;8.342;2023-04-06T14:12:55;6.07;;;3.90;;
2850;SDS011;1433;49.976;8.342;2023-04-06T14:15:22;6.00;;;3.93;;
2850;SDS011;1433;49.976;8.342;2023-04-06T14:17:49;6.33;;;3.53;;
2850;SDS011;1433;49.976;8.342;2023-04-06T14:20:16;4.20;;;3.57;;
2850;SDS011;1433;49.976;8.342;2023-04-06T14:22:43;4.40;;;3.30;;
2850;SDS011;1433;49.976;8.342;2023-04-06T14:25:09;4.53;;;3.67;;
2850;SDS011;1433;49.976;8.342;2023-04-06T14:27:36;4.00;;;3.60;;
2850;SDS011;1433;49.976;8.342;2023-04-06T14:30:03;5.90;;;3.50;;
2850;SDS011;1433;49.976;8.342;2023-04-06T14:32:29;5.10;;;3.60;;
2850;SDS011;1433;49.976;8.342;2023-04-06T14:34:55;5.77;;;3.77;;
2850;SDS011;1433;49.976;8.342;2023-04-06T14:37:22;6.17;;;3.87;;
2850;SDS011;1433;49.976;8.342;2023-04-06T14:39:48;4.90;;;3.30;;
2850;SDS011;1433;49.976;8.342;2023-04-06T14:42:14;4.83;;;4.33;;
2850;SDS011;1433;49.976;8.342;2023-04-06T14:44:40;4.77;;;3.10;;
2850;SDS011;1433;49.976;8.342;2023-04-06T14:47:09;5.47;;;4.47;;
2850;SDS011;1433;49.976;8.342;2023-04-06T14:49:35;5.10;;;2.93;;
2850;SDS011;1433;49.976;8.342;2023-04-06T14:52:02;5.43;;;3.27;;
2850;SDS011;1433;49.976;8.342;2023-04-06T14:54:28;5.93;;;3.70;;
2850;SDS011;1433;49.976;8.342;2023-04-06T14:56:54;7.97;;;4.10;;
2850;SDS011;1433;49.976;8.342;2023-04-06T14:59:20;3.40;;;2.77;;
2850;SDS011;1433;49.976;8.342;2023-04-06T15:01:47;5.30;;;3.60;;
2850;SDS011;1433;49.976;8.342;2023-04-06T15:04:13;3.57;;;3.10;;
2850;SDS011;1433;49.976;8.342;2023-04-06T15:06:39;5.00;;;2.83;;
2850;SDS011;1433;49.976;8.342;2023-04-06T15:09:05;3.73;;;3.10;;
2850;SDS011;1433;49.976;8.342;2023-04-06T15:11:32;3.63;;;2.40;;
2850;SDS011;1433;49.976;8.342;2023-04-06T15:13:58;5.10;;;2.70;;
2850;SDS011;1433;49.976;8.342;2023-04-06T15:16:25;4.30;;;3.13;;
2850;SDS011;1433;49.976;8.342;2023-04-06T15:18:52;5.90;;;3.40;;
2850;SDS011;1433;49.976;8.342;2023-04-06T15:21:18;3.73;;;2.67;;
2850;SDS011;1433;49.976;8.342;2023-04-06T15:23:45;3.90;;;3.03;;
2850;SDS011;1433;49.976;8.342;2023-04-06T15:26:11;4.83;;;3.03;;